Time;durP1;ratioP1;P1;durP2;ratioP2;P2;SDS_P1;SDS_P2;PMS_P1;PMS_P2;Temp;Humidity;BMP_temperature;BMP_pressure;BME280_temperature;BME280_humidity;BME280_pressure;Samples;Min_cycle;Max_cycle;Signal;HPM_P1;HPM_P2
2022/04/18 00:01:58;;;;;;;4.77;2.30;;;;;;;-145.69;61.49;72485.03;5074737;28;20226;-75
2022/04/18 00:04:24;;;;;;;3.47;2.50;;;;;;;-145.69;61.59;72483.03;5075120;28;20648;-74
2022/04/18 00:06:51;;;;;;;4.93;2.40;;;;;;;-145.69;62.09;72481.03;5074867;28;20202;-74
2022/04/18 00:09:18;;;;;;;5.93;2.23;;;;;;;-145.69;61.45;72477.06;5074833;28;20234;-75
2022/04/18 00:11:44;;;;;;;6.27;2.17;;;;;;;-145.69;61.78;72481.03;5074982;28;20203;-74
2022/04/18 00:14:11;;;;;;;4.10;2.30;;;;;;;-145.69;61.96;72471.09;5074765;28;20227;-74
2022/04/18 00:16:39;;;;;;;4.63;2.00;;;;;;;-145.69;61.84;72481.03;5074105;28;20242;-75
2022/04/18 00:19:06;;;;;;;5.70;2.40;;;;;;;-145.69;60.96;72475.06;5074526;28;20604;-75
2022/04/18 00:21:35;;;;;;;4.43;1.93;;;;;;;-145.69;62.33;72479.06;5074666;28;20290;-75
2022/04/18 00:24:01;;;;;;;6.30;2.50;;;;;;;-145.69;61.95;72475.06;5074807;28;20205;-75
2022/04/18 00:26:28;;;;;;;3.83;2.37;;;;;;;-145.69;62.01;72481.03;5074431;28;20202;-75
2022/04/18 00:28:56;;;;;;;3.77;2.30;;;;;;;-145.69;63.39;72496.97;5074706;28;20198;-75
2022/04/18 00:31:23;;;;;;;4.43;2.40;;;;;;;-145.69;63.40;72485.03;5074553;28;20211;-75
2022/04/18 00:33:51;;;;;;;4.77;2.60;;;;;;;-145.69;62.09;72477.06;5074356;28;20239;-75
2022/04/18 00:36:17;;;;;;;5.93;2.33;;;;;;;-145.69;62.24;72481.03;5074024;28;20556;-75
2022/04/18 00:38:45;;;;;;;3.97;2.10;;;;;;;-145.69;62.82;72487.00;5074584;28;20199;-75
2022/04/18 00:41:12;;;;;;;8.20;2.40;;;;;;;-145.69;63.54;72493.00;5074071;28;20218;-75
2022/04/18 00:43:40;;;;;;;3.70;2.10;;;;;;;-145.69;64.11;72508.91;5074528;28;20237;-75
2022/04/18 00:46:07;;;;;;;3.53;2.27;;;;;;;-145.69;63.30;72496.97;5074078;28;20674;-75
2022/04/18 00:48:36;;;;;;;3.60;2.30;;;;;;;-145.69;64.05;72485.03;5074226;28;20707;-75
2022/04/18 00:51:07;;;;;;;6.53;2.00;;;;;;;-145.69;63.52;72489.00;5073877;28;20203;-75
2022/04/18 00:53:36;;;;;;;4.03;2.47;;;;;;;-145.69;64.10;72489.00;5074228;28;20241;-75
2022/04/18 00:56:02;;;;;;;4.97;2.70;;;;;;;-145.69;64.58;72496.97;5073435;28;20202;-75
2022/04/18 00:58:30;;;;;;;3.40;2.40;;;;;;;-145.69;64.52;72496.97;5056077;28;20196;-75
2022/04/18 01:00:57;;;;;;;3.53;2.07;;;;;;;-145.69;65.46;72518.88;5052895;28;20320;-75
2022/04/18 01:03:23;;;;;;;5.13;2.40;;;;;;;-145.69;62.69;72469.09;5053778;28;20253;-75
2022/04/18 01:05:50;;;;;;;5.30;2.10;;;;;;;-145.69;64.15;72483.03;5053363;28;20555;-75
2022/04/18 01:08:18;;;;;;;4.03;2.47;;;;;;;-145.69;64.72;72489.00;5053903;28;20204;-75
2022/04/18 01:10:45;;;;;;;4.50;2.17;;;;;;;-145.69;65.62;72508.91;5053515;28;20204;-75
2022/04/18 01:13:12;;;;;;;5.03;2.20;;;;;;;-145.69;65.30;72498.97;5071941;28;20199;-75
2022/04/18 01:15:38;;;;;;;6.70;2.50;;;;;;;-145.69;66.13;72487.00;5073427;28;20543;-75
2022/04/18 01:18:08;;;;;;;4.07;2.20;;;;;;;-145.69;66.30;72496.97;5073335;28;20721;-75
2022/04/18 01:20:36;;;;;;;3.70;2.10;;;;;;;-145.69;65.87;72469.09;5073585;28;20198;-75
2022/04/18 01:23:06;;;;;;;8.13;2.27;;;;;;;-145.69;65.70;72481.03;5073397;28;20286;-75
2022/04/18 01:31:02;;;;;;;6.73;2.40;;;;;;;-145.69;65.96;72477.06;5073607;28;20205;-75
2022/04/18 01:33:29;;;;;;;5.27;2.30;;;;;;;-145.69;67.50;72491.00;5073227;28;20203;-75
2022/04/18 01:35:56;;;;;;;5.23;2.20;;;;;;;-145.69;65.63;72469.09;5072898;28;20294;-75
2022/04/18 01:38:24;;;;;;;2.80;2.20;;;;;;;-145.69;65.13;72441.25;5073205;28;20553;-75
2022/04/18 01:40:50;;;;;;;4.33;2.70;;;;;;;-145.69;64.89;72445.22;5072931;28;20198;-75
2022/04/18 01:43:17;;;;;;;3.13;2.30;;;;;;;-145.69;65.04;72447.22;5073124;28;20657;-75
2022/04/18 01:45:47;;;;;;;7.20;2.70;;;;;;;-145.69;63.99;72445.22;5072733;28;20194;-75
2022/04/18 01:48:14;;;;;;;6.27;2.20;;;;;;;-145.69;66.32;72451.19;5073195;28;20290;-75
2022/04/18 01:50:40;;;;;;;3.80;2.23;;;;;;;-145.69;64.60;72439.25;5073150;28;20202;-74
2022/04/18 01:53:07;;;;;;;3.87;2.17;;;;;;;-145.69;65.09;72445.22;5073076;28;20206;-75
2022/04/18 01:55:35;;;;;;;3.73;2.30;;;;;;;-145.69;66.26;72461.13;5073012;28;20205;-75
2022/04/18 01:58:05;;;;;;;4.00;2.27;;;;;;;-145.69;66.38;72449.19;5073122;28;20203;-75
2022/04/18 02:00:31;;;;;;;3.97;2.33;;;;;;;-145.69;65.02;72443.22;5072899;28;20199;-75
2022/04/18 02:02:58;;;;;;;2.50;2.10;;;;;;;-145.69;64.15;72423.31;5072708;28;20226;-75
2022/04/18 02:05:25;;;;;;;5.07;2.30;;;;;;;-145.69;65.68;72435.28;5072746;28;20206;-75
2022/04/18 02:07:51;;;;;;;3.27;2.20;;;;;;;-145.69;66.43;72453.19;5072579;28;20199;-75
2022/04/18 02:10:18;;;;;;;5.13;2.93;;;;;;;-145.69;64.93;72423.31;5072686;28;20198;-75
2022/04/18 02:12:45;;;;;;;5.20;2.20;;;;;;;-145.69;64.83;72439.25;5072574;28;20612;-75
2022/04/18 02:15:12;;;;;;;4.10;1.90;;;;;;;-145.69;65.99;72443.22;5072674;28;20245;-75
2022/04/18 02:17:38;;;;;;;3.40;2.43;;;;;;;-145.69;65.89;72449.19;5072627;28;20349;-75
2022/04/18 02:20:07;;;;;;;4.50;2.33;;;;;;;-145.69;65.05;72427.31;5072839;28;20210;-75
2022/04/18 02:22:33;;;;;;;3.70;2.40;;;;;;;-145.69;65.34;72441.25;5072586;28;20234;-75
2022/04/18 02:25:00;;;;;;;4.70;2.43;;;;;;;-145.69;66.42;72475.06;5072865;28;20206;-75
2022/04/18 02:27:27;;;;;;;6.43;2.10;;;;;;;-145.69;66.29;72453.19;5072929;28;20199;-75
2022/04/18 02:29:55;;;;;;;7.53;2.40;;;;;;;-145.69;66.37;72465.13;5072968;28;20206;-75
2022/04/18 02:35:06;;;;;;;4.40;2.50;;;;;;;-145.69;67.79;72491.00;5072251;28;21027;-75
2022/04/18 02:37:33;;;;;;;5.23;2.80;;;;;;;-145.69;69.93;72536.78;5072448;28;20198;-75
2022/04/18 02:39:59;;;;;;;7.57;2.47;;;;;;;-145.69;73.33;72564.66;5072624;28;20198;-75
2022/04/18 02:42:27;;;;;;;2.53;1.90;;;;;;;-145.69;76.75;72622.38;5072513;28;20222;-75
2022/04/18 02:44:55;;;;;;;3.40;1.90;;;;;;;-145.69;76.74;72640.28;5072407;28;20538;-75
2022/04/18 02:47:22;;;;;;;6.53;2.53;;;;;;;-145.69;74.12;72580.56;5072453;28;20203;-75
2022/04/18 02:49:50;;;;;;;3.43;2.23;;;;;;;-145.69;76.36;72624.34;5072458;28;20256;-75
2022/04/18 02:52:16;;;;;;;5.53;2.53;;;;;;;-145.69;77.17;72640.28;5069252;28;20206;-75
2022/04/18 02:54:43;;;;;;;4.77;2.53;;;;;;;-145.69;79.93;72666.16;5052529;28;20208;-76
2022/04/18 02:57:11;;;;;;;3.30;2.30;;;;;;;-145.69;80.06;72664.16;5052015;28;20558;-75
2022/04/18 02:59:37;;;;;;;5.37;2.23;;;;;;;-145.69;80.47;72692.03;5052633;28;20551;-75
2022/04/18 03:02:05;;;;;;;4.40;2.37;;;;;;;-145.69;80.26;72711.94;5051950;28;20277;-75
2022/04/18 03:04:32;;;;;;;5.47;2.87;;;;;;;-145.69;81.85;72727.88;5052593;28;20204;-75
2022/04/18 03:06:58;;;;;;;6.57;3.20;;;;;;;-145.69;83.95;72759.72;5071596;28;20818;-75
2022/04/18 03:09:27;;;;;;;3.73;2.47;;;;;;;-145.69;84.26;72767.69;5072338;28;20210;-75
2022/04/18 03:11:54;;;;;;;4.00;2.37;;;;;;;-145.69;85.57;72769.66;5072408;28;20229;-75
2022/04/18 03:14:20;;;;;;;5.07;2.73;;;;;;;-145.69;86.21;72783.59;5072320;28;20604;-74
2022/04/18 03:16:47;;;;;;;4.83;3.30;;;;;;;-145.69;88.80;72805.50;5071704;28;20238;-74
2022/04/18 03:19:15;;;;;;;5.07;2.50;;;;;;;-145.69;89.24;72823.41;5072583;28;20195;-74
2022/04/18 03:21:41;;;;;;;4.87;2.43;;;;;;;-145.69;89.31;72827.38;5072231;28;20356;-74
2022/04/18 03:24:08;;;;;;;4.60;2.60;;;;;;;-145.69;90.55;72837.34;5072317;28;20225;-74
2022/04/18 03:26:35;;;;;;;4.90;2.37;;;;;;;-145.69;89.29;72811.47;5075699;28;20669;-74
2022/04/18 03:29:01;;;;;;;4.50;2.60;;;;;;;-145.69;89.68;72831.38;5076074;28;20198;-75
2022/04/18 03:31:28;;;;;;;5.60;2.60;;;;;;;-145.69;91.67;72857.25;5075544;28;20210;-74
2022/04/18 03:33:54;;;;;;;6.10;2.40;;;;;;;-145.69;93.83;72867.19;5075843;28;20202;-75
2022/04/18 03:41:50;;;;;;;8.53;2.87;;;;;;;-145.69;97.09;72903.03;5075269;28;20232;-74
2022/04/18 03:44:17;;;;;;;4.97;2.93;;;;;;;-145.69;96.50;72873.19;5075742;28;20547;-75
2022/04/18 03:46:44;;;;;;;4.50;2.70;;;;;;;-145.69;96.26;72901.03;5075479;28;20223;-74
2022/04/18 03:49:10;;;;;;;6.93;2.60;;;;;;;-145.69;97.32;72869.19;5075413;28;20211;-74
2022/04/18 03:51:38;;;;;;;3.13;2.47;;;;;;;-145.69;98.05;72873.19;5075169;28;20209;-75
2022/04/18 03:54:05;;;;;;;4.53;2.60;;;;;;;-145.69;98.21;72875.16;5075344;28;20201;-74
2022/04/18 03:56:32;;;;;;;4.87;2.70;;;;;;;-145.69;98.43;72891.09;5075424;28;20199;-74
2022/04/18 03:58:58;;;;;;;5.57;2.80;;;;;;;-145.69;100.00;72901.03;5075655;28;20294;-74
2022/04/18 04:01:25;;;;;;;7.07;3.30;;;;;;;-145.69;97.26;72887.09;5075056;28;20535;-74
2022/04/18 04:03:51;;;;;;;4.63;3.03;;;;;;;-145.69;96.67;72859.25;5075002;28;20206;-74
2022/04/18 04:06:17;;;;;;;6.13;3.07;;;;;;;-145.69;96.24;72863.22;5074311;28;20202;-74
2022/04/18 04:08:45;;;;;;;4.10;2.57;;;;;;;-145.69;96.59;72877.16;5074725;28;20199;-74
2022/04/18 04:11:12;;;;;;;5.20;2.80;;;;;;;-145.69;96.91;72879.16;5075091;28;20202;-74
2022/04/18 04:13:38;;;;;;;7.73;2.77;;;;;;;-145.69;97.27;72879.16;5074529;28;20665;-74
2022/04/18 04:16:05;;;;;;;5.63;3.07;;;;;;;-145.69;97.28;72883.13;5074821;28;20231;-74
2022/04/18 04:18:32;;;;;;;5.60;2.60;;;;;;;-145.69;98.14;72899.06;5073487;28;20191;-74
2022/04/18 04:20:58;;;;;;;7.37;2.80;;;;;;;-145.69;99.37;72914.97;5074909;28;20203;-74
2022/04/18 04:23:25;;;;;;;4.27;3.00;;;;;;;-145.69;99.39;72914.97;5074285;28;20227;-74
2022/04/18 04:25:53;;;;;;;5.77;3.17;;;;;;;-145.69;100.00;72934.88;5074844;28;20600;-74
2022/04/18 04:28:19;;;;;;;4.33;2.97;;;;;;;-145.69;99.87;72909.00;5074747;28;20596;-74
2022/04/18 04:30:45;;;;;;;5.17;3.10;;;;;;;-145.69;97.16;72871.19;5074373;28;20207;-75
2022/04/18 04:33:16;;;;;;;4.77;2.80;;;;;;;-145.69;93.67;72819.44;5074633;28;20256;-74
2022/04/18 04:35:42;;;;;;;7.57;3.20;;;;;;;-145.69;88.21;72737.81;5074030;28;20289;-76
2022/04/18 04:38:09;;;;;;;7.90;2.80;;;;;;;-145.69;85.81;72701.97;5074119;28;20207;-75
2022/04/18 04:40:36;;;;;;;3.47;2.80;;;;;;;-145.69;84.46;72684.06;5074647;28;20202;-76
2022/04/18 04:43:04;;;;;;;6.60;3.00;;;;;;;-145.69;82.77;72668.16;5074487;28;20245;-75
2022/04/18 04:45:32;;;;;;;5.13;2.37;;;;;;;-145.69;80.76;72652.22;5074279;28;20219;-75
2022/04/18 04:47:59;;;;;;;5.07;2.80;;;;;;;-145.69;79.78;72622.38;5072308;28;20312;-76
2022/04/18 04:50:25;;;;;;;8.00;2.80;;;;;;;-145.69;79.91;72626.34;5055863;28;20217;-75
2022/04/18 04:52:52;;;;;;;6.30;2.40;;;;;;;-145.69;78.94;72626.34;5054063;28;20610;-76
2022/04/18 04:55:18;;;;;;;4.97;2.73;;;;;;;-145.69;81.48;72648.25;5054215;28;20200;-75
2022/04/18 04:57:45;;;;;;;4.67;2.33;;;;;;;-145.69;82.56;72680.09;5054055;28;20199;-76
2022/04/18 05:00:14;;;;;;;3.77;2.67;;;;;;;-145.69;85.38;72717.91;5053953;28;20207;-76
2022/04/18 05:02:40;;;;;;;5.30;2.60;;;;;;;-145.69;89.07;72751.75;5053811;28;20238;-76
2022/04/18 05:05:08;;;;;;;4.90;2.67;;;;;;;-145.69;89.61;72759.72;5062664;28;20210;-76
2022/04/18 05:07:34;;;;;;;5.37;2.60;;;;;;;-145.69;89.50;72767.69;5073870;28;20195;-76
2022/04/18 05:10:01;;;;;;;7.00;2.60;;;;;;;-145.69;89.73;72763.69;5073670;28;20206;-76
2022/04/18 05:12:28;;;;;;;6.03;3.00;;;;;;;-145.69;84.72;72692.03;5073952;28;20206;-75
2022/04/18 05:14:55;;;;;;;4.50;2.57;;;;;;;-145.69;82.06;72632.31;5073788;28;20203;-76
2022/04/18 05:17:23;;;;;;;4.90;2.43;;;;;;;-145.69;79.67;72590.53;5073545;28;20824;-76
2022/04/18 05:19:49;;;;;;;3.23;2.40;;;;;;;-145.69;78.66;72576.59;5072830;28;20199;-76
2022/04/18 05:22:16;;;;;;;4.27;2.53;;;;;;;-145.69;78.18;72562.66;5073567;28;20223;-76
2022/04/18 05:24:42;;;;;;;5.33;2.47;;;;;;;-145.69;77.97;72544.75;5073527;28;20657;-76
2022/04/18 05:27:09;;;;;;;6.17;2.80;;;;;;;-145.69;75.92;72540.75;5073606;28;20573;-76
2022/04/18 05:29:35;;;;;;;4.17;2.50;;;;;;;-145.69;81.75;72602.47;5073586;28;20209;-76
2022/04/18 05:32:02;;;;;;;5.20;3.13;;;;;;;-145.69;83.24;72652.22;5073536;28;20207;-77
2022/04/18 05:34:29;;;;;;;6.60;3.20;;;;;;;-145.69;86.07;72672.13;5072822;28;20194;-74
2022/04/18 05:36:56;;;;;;;3.97;2.33;;;;;;;-145.69;85.07;72678.09;5073736;28;20203;-75
2022/04/18 05:39:22;;;;;;;3.90;2.53;;;;;;;-145.69;83.86;72644.25;5073321;28;20202;-74
2022/04/18 05:41:49;;;;;;;4.57;2.63;;;;;;;-145.69;79.34;72594.50;5073385;28;20206;-74
2022/04/18 05:44:15;;;;;;;5.13;2.43;;;;;;;-145.69;77.95;72550.72;5073222;28;20295;-74
2022/04/18 05:46:42;;;;;;;7.70;2.60;;;;;;;-145.69;80.01;72592.50;5072793;28;20609;-76
2022/04/18 05:49:08;;;;;;;3.77;2.50;;;;;;;-145.69;83.86;72630.31;5073068;28;20279;-74
2022/04/18 05:51:38;;;;;;;5.63;3.10;;;;;;;-145.69;82.83;72648.25;5073265;28;20201;-76
2022/04/18 05:54:05;;;;;;;5.93;2.60;;;;;;;-145.69;83.24;72640.28;5073224;28;20307;-75
2022/04/18 05:56:31;;;;;;;5.10;2.80;;;;;;;-145.69;80.92;72580.56;5073209;28;20199;-76
2022/04/18 05:58:58;;;;;;;3.37;2.23;;;;;;;-145.69;79.12;72554.69;5072963;28;20210;-76
2022/04/18 06:01:25;;;;;;;4.60;2.53;;;;;;;-145.69;79.43;72534.78;5072795;28;20215;-75
2022/04/18 06:03:51;;;;;;;5.37;2.33;;;;;;;-145.69;78.82;72532.78;5072632;28;20712;-74
2022/04/18 06:06:18;;;;;;;5.10;2.70;;;;;;;-145.69;76.22;72473.09;5073138;28;20206;-73
2022/04/18 06:08:46;;;;;;;6.43;2.53;;;;;;;-145.69;70.38;72369.59;5072722;28;20260;-75
2022/04/18 06:11:12;;;;;;;6.70;2.83;;;;;;;-145.69;69.22;72339.72;5072860;28;20210;-75
2022/04/18 06:13:39;;;;;;;4.37;2.30;;;;;;;-145.69;68.64;72311.88;5072833;28;20669;-75
2022/04/18 06:16:06;;;;;;;4.60;2.57;;;;;;;-145.69;71.30;72345.69;5072245;28;20241;-75
2022/04/18 06:18:33;;;;;;;4.77;2.73;;;;;;;-145.69;71.91;72365.59;5072817;28;20202;-75
2022/04/18 06:20:59;;;;;;;4.70;2.63;;;;;;;-145.69;70.38;72399.44;5072516;28;20272;-75
2022/04/18 06:23:26;;;;;;;4.87;3.10;;;;;;;-145.69;72.63;72389.50;5072928;28;20234;-76
2022/04/18 06:25:54;;;;;;;6.83;3.23;;;;;;;-145.69;68.84;72325.81;5072834;28;20210;-75
2022/04/18 06:28:20;;;;;;;4.37;2.80;;;;;;;-145.69;66.18;72313.84;5072845;28;20202;-75
2022/04/18 06:30:47;;;;;;;4.07;2.13;;;;;;;-145.69;72.36;72319.81;5072659;28;20658;-75
2022/04/18 06:33:14;;;;;;;3.53;2.50;;;;;;;-145.69;71.33;72313.84;5072731;28;20195;-75
2022/04/18 06:35:42;;;;;;;4.27;2.60;;;;;;;-145.69;67.75;72297.94;5072318;28;20194;-76
2022/04/18 06:38:08;;;;;;;3.67;2.53;;;;;;;-145.69;64.30;72222.31;5072798;28;20205;-76
2022/04/18 06:40:35;;;;;;;4.13;2.50;;;;;;;-145.69;62.84;72190.47;5072374;28;20206;-76
2022/04/18 06:43:03;;;;;;;5.07;2.23;;;;;;;-145.69;63.05;72154.63;5072546;28;20693;-75
2022/04/18 06:45:31;;;;;;;5.90;2.30;;;;;;;-145.69;62.27;72130.75;5059762;28;20659;-75
2022/04/18 06:47:57;;;;;;;4.40;2.47;;;;;;;-145.69;59.19;72106.88;5052504;28;20677;-76
2022/04/18 06:50:24;;;;;;;3.63;2.10;;;;;;;-145.69;59.46;72092.94;5052603;28;20200;-76
2022/04/18 06:52:51;;;;;;;6.27;2.50;;;;;;;-145.69;60.40;72067.06;5052678;28;20202;-76
2022/04/18 06:55:17;;;;;;;4.43;2.30;;;;;;;-145.69;57.61;72061.09;5052889;28;20212;-75
2022/04/18 06:57:43;;;;;;;5.20;2.20;;;;;;;-145.69;57.64;72051.16;5052399;28;20195;-75
2022/04/18 07:00:11;;;;;;;3.53;2.33;;;;;;;-145.69;56.83;72035.22;5055002;28;20206;-75
2022/04/18 07:02:44;;;;;;;3.23;2.20;;;;;;;-145.69;56.46;72043.19;5075665;28;20218;-76
2022/04/18 07:05:11;;;;;;;3.93;2.10;;;;;;;-145.69;57.17;72031.25;5076266;28;20203;-76
2022/04/18 07:07:37;;;;;;;6.07;2.50;;;;;;;-145.69;55.35;72009.34;5076016;28;20260;-76
2022/04/18 07:10:05;;;;;;;5.57;2.70;;;;;;;-145.69;53.75;71999.41;5076048;28;20252;-76
2022/04/18 07:12:31;;;;;;;4.93;2.60;;;;;;;-145.69;54.63;71995.41;5076168;28;20199;-75
2022/04/18 07:14:59;;;;;;;8.30;2.33;;;;;;;-145.69;54.89;71975.50;5075982;28;20249;-75
2022/04/18 07:17:27;;;;;;;2.30;2.10;;;;;;;-145.69;54.76;71975.50;5075718;28;20768;-76
2022/04/18 07:19:53;;;;;;;3.87;2.23;;;;;;;-145.69;53.64;71975.50;5075934;28;20202;-75
2022/04/18 07:22:20;;;;;;;6.50;2.40;;;;;;;-145.69;52.93;71963.56;5075748;28;20199;-76
2022/04/18 07:24:46;;;;;;;6.23;2.23;;;;;;;-145.69;52.36;71941.69;5075421;28;20312;-76
2022/04/18 07:27:13;;;;;;;3.93;2.17;;;;;;;-145.69;53.17;71949.66;5075864;28;20596;-76
2022/04/18 07:29:39;;;;;;;5.30;2.57;;;;;;;-145.69;52.02;71943.69;5075716;28;20203;-76
2022/04/18 07:32:07;;;;;;;6.70;2.47;;;;;;;-145.69;53.08;71939.69;5075461;28;20191;-75
2022/04/18 07:34:35;;;;;;;4.23;2.00;;;;;;;-145.69;51.50;71923.78;5075515;28;20203;-75
2022/04/18 07:37:01;;;;;;;6.93;2.67;;;;;;;-145.69;52.27;71919.78;5075432;28;20649;-76
2022/04/18 07:39:28;;;;;;;3.70;2.30;;;;;;;-145.69;51.83;71911.84;5075536;28;20214;-75
2022/04/18 07:41:54;;;;;;;5.97;2.60;;;;;;;-145.69;50.04;71909.84;5075440;28;20654;-76
2022/04/18 07:44:22;;;;;;;3.93;2.03;;;;;;;-145.69;51.58;71903.88;5075632;28;20227;-75
2022/04/18 07:46:48;;;;;;;4.67;2.13;;;;;;;-145.69;51.80;71883.97;5075467;28;20206;-74
2022/04/18 07:49:15;;;;;;;4.37;2.10;;;;;;;-145.69;49.05;71880.00;5075291;28;20194;-75
2022/04/18 07:51:42;;;;;;;4.13;2.20;;;;;;;-145.69;52.97;71860.09;5075254;28;20256;-76
2022/04/18 07:54:11;;;;;;;3.97;2.10;;;;;;;-145.69;48.64;71856.09;5075621;28;20206;-75
2022/04/18 07:56:38;;;;;;;4.63;2.20;;;;;;;-145.69;48.55;71832.22;5075087;28;20294;-76
2022/04/18 07:59:05;;;;;;;3.33;1.80;;;;;;;-145.69;49.53;71836.22;5075318;28;20217;-76
2022/04/18 08:01:32;;;;;;;3.50;2.00;;;;;;;-145.69;47.09;71812.31;5074894;28;20199;-75
2022/04/18 08:04:00;;;;;;;3.10;2.10;;;;;;;-145.69;49.30;71800.38;5075046;28;20606;-75
2022/04/18 08:06:27;;;;;;;4.60;2.37;;;;;;;-145.69;48.45;71808.34;5074404;28;20257;-76
2022/04/18 08:08:55;;;;;;;3.57;1.93;;;;;;;-145.69;47.49;71804.38;5074832;28;20199;-77
2022/04/18 08:11:21;;;;;;;2.87;1.93;;;;;;;-145.69;46.64;71800.38;5074529;28;20688;-76
2022/04/18 08:13:49;;;;;;;4.23;2.13;;;;;;;-145.69;47.08;71776.50;5074866;28;20211;-74
2022/04/18 08:16:16;;;;;;;7.90;2.23;;;;;;;-145.69;46.20;71768.53;5074730;28;20226;-74
2022/04/18 08:18:44;;;;;;;4.40;2.20;;;;;;;-145.69;45.95;71762.56;5074738;28;20312;-75
2022/04/18 08:21:11;;;;;;;4.23;2.20;;;;;;;-145.69;45.39;71760.59;5074927;28;20198;-75
2022/04/18 08:23:38;;;;;;;3.23;2.10;;;;;;;-145.69;47.09;71748.66;5074825;28;20710;-75
2022/04/18 08:26:06;;;;;;;5.03;2.20;;;;;;;-145.69;45.85;71738.69;5074790;28;20203;-75
2022/04/18 08:28:33;;;;;;;5.80;2.30;;;;;;;-145.69;46.51;71722.78;5074552;28;20562;-75
2022/04/18 08:31:01;;;;;;;4.13;2.30;;;;;;;-145.69;44.04;71726.75;5074690;28;20568;-75
2022/04/18 08:33:29;;;;;;;5.67;2.33;;;;;;;-145.69;46.03;71724.75;5074566;28;20214;-75
2022/04/18 08:35:57;;;;;;;9.73;2.10;;;;;;;-145.69;47.00;71694.91;5074760;28;20199;-74
2022/04/18 08:38:23;;;;;;;6.17;2.00;;;;;;;-145.69;42.39;71712.81;5073847;28;20206;-75
2022/04/18 08:40:51;;;;;;;4.80;2.00;;;;;;;-145.69;46.99;71688.94;5072865;28;20203;-74
2022/04/18 08:43:19;;;;;;;5.30;2.03;;;;;;;-145.69;45.07;71671.03;5072152;28;20214;-76
2022/04/18 08:45:47;;;;;;;3.27;1.73;;;;;;;-145.69;44.77;71675.00;5074247;28;20199;-75
2022/04/18 08:53:43;;;;;;;3.73;2.23;;;;;;;-145.69;45.54;71655.13;5074230;28;20202;-75
2022/04/18 08:56:10;;;;;;;3.40;1.87;;;;;;;-145.69;41.60;71649.16;5062545;28;20215;-75
2022/04/18 08:58:37;;;;;;;2.77;1.97;;;;;;;-145.69;41.83;71639.19;5054215;28;20569;-74
2022/04/18 09:01:05;;;;;;;3.60;2.07;;;;;;;-145.69;44.88;71609.34;5054029;28;20199;-74
2022/04/18 09:03:31;;;;;;;3.60;1.60;;;;;;;-145.69;40.11;71639.19;5053969;28;20227;-75
2022/04/18 09:06:06;;;;;;;3.97;2.00;;;;;;;-145.69;43.69;71613.31;5053620;28;20199;-74
2022/04/18 09:08:35;;;;;;;2.17;1.60;;;;;;;-145.69;41.49;71613.31;5066878;28;20704;-74
2022/04/18 09:11:01;;;;;;;4.97;1.77;;;;;;;-145.69;41.75;71625.25;5073542;28;20206;-75
2022/04/18 09:13:28;;;;;;;3.58;1.90;;;;;;;-145.69;41.89;71615.31;5072789;28;20445;-74
2022/04/18 09:15:56;;;;;;;4.33;2.10;;;;;;;-145.69;44.03;71587.47;5073491;28;20199;-74
2022/04/18 09:18:24;;;;;;;2.83;1.70;;;;;;;-145.69;40.80;71599.41;5073554;28;20227;-75
2022/04/18 09:20:52;;;;;;;3.10;1.80;;;;;;;-145.69;41.12;71605.38;5073645;28;20206;-74
2022/04/18 09:23:23;;;;;;;2.23;1.50;;;;;;;-145.69;41.24;71597.41;5072435;28;20210;-74
2022/04/18 09:26:00;;;;;;;5.27;1.83;;;;;;;-145.69;41.58;71609.34;5073539;28;20195;-74
2022/04/18 09:28:29;;;;;;;4.33;1.80;;;;;;;-145.69;40.75;71593.44;5073487;28;20198;-74
2022/04/18 09:31:02;;;;;;;3.27;1.57;;;;;;;-145.69;40.46;71577.50;5073259;28;20285;-74
2022/04/18 09:33:30;;;;;;;3.60;1.87;;;;;;;-145.69;39.46;71585.47;5073356;28;20211;-74
2022/04/18 09:36:12;;;;;;;2.27;1.70;;;;;;;-145.69;41.05;71581.50;5073106;28;20711;-74
2022/04/18 09:38:40;;;;;;;4.70;2.27;;;;;;;-145.69;35.81;71613.31;5072910;28;20202;-74
2022/04/18 09:41:09;;;;;;;3.60;1.63;;;;;;;-145.69;37.75;71583.47;5073020;28;20203;-74
2022/04/18 09:43:43;;;;;;;2.97;1.60;;;;;;;-145.69;36.73;71585.47;5072850;28;20681;-74
2022/04/18 09:46:12;;;;;;;2.45;1.45;;;;;;;-145.69;37.11;71599.41;5073167;28;20384;-74
2022/04/18 09:48:39;;;;;;;5.30;2.20;;;;;;;-145.69;38.93;71557.59;5072610;28;20202;-74
2022/04/18 09:51:11;;;;;;;7.70;1.73;;;;;;;-145.69;38.88;71565.56;5073259;28;20202;-75
2022/04/18 09:53:39;;;;;;;2.73;1.83;;;;;;;-145.69;38.32;71561.59;5072862;28;20604;-75
2022/04/18 09:56:07;;;;;;;3.20;1.80;;;;;;;-145.69;39.58;71569.53;5072752;28;20561;-75
2022/04/18 09:58:36;;;;;;;2.70;1.70;;;;;;;-145.69;38.37;71559.59;5071659;28;20205;-75
2022/04/18 10:01:07;;;;;;;3.70;1.77;;;;;;;-145.69;38.48;71543.69;5072361;28;20212;-75
2022/04/18 10:03:36;;;;;;;2.67;1.87;;;;;;;-145.69;44.41;71529.75;5072482;28;20223;-76
2022/04/18 10:06:04;;;;;;;5.07;1.80;;;;;;;-145.69;40.82;71521.78;5073105;28;20199;-76
2022/04/18 10:08:30;;;;;;;4.77;1.70;;;;;;;-145.69;42.31;71485.97;5072184;28;20734;-76
2022/04/18 10:10:58;;;;;;;1.97;1.43;;;;;;;-145.69;38.25;71505.88;5072819;28;20222;-76
2022/04/18 10:13:29;;;;;;;6.57;1.83;;;;;;;-145.69;40.47;71489.94;5072648;28;20203;-75
2022/04/18 10:15:58;;;;;;;3.50;1.80;;;;;;;-145.69;40.70;71482.00;5072625;28;20203;-76
2022/04/18 10:18:27;;;;;;;3.10;1.80;;;;;;;-145.69;36.73;71474.03;5072877;28;20206;-76
2022/04/18 10:21:17;;;;;;;2.93;1.70;;;;;;;-145.69;37.19;71478.00;5072878;28;20199;-77
2022/04/18 10:24:13;;;;;;;7.50;1.80;;;;;;;-145.69;38.51;71448.16;5072306;28;20230;-77
2022/04/18 10:27:17;;;;;;;4.63;1.83;;;;;;;-145.69;41.08;71406.38;5072587;28;20198;-76
2022/04/18 10:29:48;;;;;;;4.57;1.90;;;;;;;-145.69;40.03;71428.25;5072633;28;20209;-76
2022/04/18 10:32:18;;;;;;;4.20;1.73;;;;;;;-145.69;40.06;71412.34;5072351;28;20290;-76
2022/04/18 10:34:49;;;;;;;3.00;1.80;;;;;;;-145.69;37.65;71414.34;5075593;28;20650;-76
2022/04/18 10:37:17;;;;;;;4.27;2.03;;;;;;;-145.69;35.25;71430.25;5076573;28;20281;-76
2022/04/18 10:39:44;;;;;;;6.93;1.70;;;;;;;-145.69;35.93;71458.09;5076628;28;20203;-76
2022/04/18 10:42:21;;;;;;;5.00;1.83;;;;;;;-145.69;36.67;71454.13;5076695;28;20568;-77
2022/04/18 10:44:59;;;;;;;2.90;1.63;;;;;;;-145.69;37.95;71444.19;5076282;28;20230;-76
2022/04/18 10:47:26;;;;;;;2.77;1.50;;;;;;;-145.69;39.32;71422.28;5060083;28;20227;-76
2022/04/18 10:50:19;;;;;;;2.77;1.57;;;;;;;-145.69;42.77;71354.63;5056589;28;20206;-76
2022/04/18 10:53:11;;;;;;;4.00;1.80;;;;;;;-145.69;38.34;71376.53;5056431;28;20199;-76
2022/04/18 10:55:40;;;;;;;3.23;1.80;;;;;;;-145.69;35.58;71390.47;5056663;28;20231;-76
2022/04/18 10:58:12;;;;;;;3.70;1.77;;;;;;;-145.69;38.01;71390.47;5055993;28;20203;-76
2022/04/18 11:00:52;;;;;;;3.60;1.93;;;;;;;-145.69;37.75;71414.34;5056299;28;20769;-76
2022/04/18 11:03:43;;;;;;;4.57;2.30;;;;;;;-145.69;41.84;71420.31;5058525;28;20209;-76
2022/04/18 11:06:11;;;;;;;5.80;1.93;;;;;;;-145.69;35.98;71382.50;5076144;28;20203;-76
2022/04/18 11:08:40;;;;;;;6.37;2.10;;;;;;;-145.69;38.74;71362.59;5076180;28;20207;-76
2022/04/18 11:11:07;;;;;;;3.73;1.67;;;;;;;-145.69;37.17;71340.72;5076191;28;20300;-76
2022/04/18 11:13:33;;;;;;;4.17;1.70;;;;;;;-145.69;35.97;71290.97;5075463;28;20650;-76
2022/04/18 11:16:37;;;;;;;4.20;1.73;;;;;;;-145.69;37.37;71300.91;5075657;28;20246;-76
2022/04/18 11:19:07;;;;;;;2.97;1.83;;;;;;;-145.69;40.75;71251.16;5075948;28;20194;-76
2022/04/18 11:22:04;;;;;;;3.37;1.90;;;;;;;-145.69;39.36;71231.28;5075362;28;20191;-77
2022/04/18 11:24:37;;;;;;;8.70;5.87;;;;;;;-145.69;38.69;71223.31;5075369;28;20226;-77
2022/04/18 11:27:06;;;;;;;7.10;4.50;;;;;;;-145.69;37.91;71217.34;5075965;28;20214;-77
2022/04/18 11:29:33;;;;;;;4.67;2.77;;;;;;;-145.69;37.96;71215.34;5075810;28;20543;-77
2022/04/18 11:32:07;;;;;;;3.35;1.90;;;;;;;-145.69;40.51;71229.28;5075690;28;20225;-77
2022/04/18 11:34:35;;;;;;;4.23;2.30;;;;;;;-145.69;38.64;71215.34;5075700;28;20210;-77
2022/04/18 11:37:08;;;;;;;5.70;1.60;;;;;;;-145.69;35.33;71231.28;5075149;28;20191;-78
2022/04/18 11:39:44;;;;;;;4.27;1.90;;;;;;;-145.69;36.86;71231.28;5075520;28;20198;-77
2022/04/18 11:42:17;;;;;;;4.30;2.00;;;;;;;-145.69;36.61;71231.28;5075160;28;20209;-77